createdAt,value
2022-10-08T00:04:25.285Z,15.10
2022-10-08T00:09:26.768Z,15.14
2022-10-08T00:14:28.268Z,15.18
2022-10-08T00:19:29.720Z,15.20
2022-10-08T00:24:31.886Z,15.20
2022-10-08T00:29:33.503Z,15.18
2022-10-08T00:34:35.108Z,15.13
2022-10-08T00:39:36.598Z,15.02
2022-10-08T00:44:54.665Z,14.85
2022-10-08T00:50:00.597Z,14.65
2022-10-08T00:55:06.510Z,14.54
2022-10-08T01:00:11.679Z,14.55
2022-10-08T01:05:16.857Z,14.70
2022-10-08T01:10:27.514Z,14.80
2022-10-08T01:15:28.912Z,14.89
2022-10-08T01:20:39.451Z,15.04
2022-10-08T01:25:56.658Z,15.18
2022-10-08T01:31:13.458Z,15.28
2022-10-08T01:36:18.045Z,15.34
2022-10-08T01:41:22.667Z,15.39
2022-10-08T01:46:28.058Z,15.42
2022-10-08T01:51:34.375Z,15.35
2022-10-08T01:56:40.023Z,15.25
2022-10-08T02:02:10.683Z,15.20
2022-10-08T02:07:38.463Z,15.14
2022-10-08T02:12:41.522Z,15.08
2022-10-08T02:17:50.371Z,15.02
2022-10-08T02:23:06.756Z,14.99
2022-10-08T02:28:25.918Z,15.05
2022-10-08T02:33:34.580Z,15.11
2022-10-08T02:38:44.833Z,15.19
2022-10-08T02:43:49.798Z,15.23
2022-10-08T02:49:08.230Z,15.31
2022-10-08T02:54:10.473Z,15.43
2022-10-08T02:59:12.872Z,15.42
2022-10-08T03:04:43.580Z,15.39
2022-10-08T03:09:46.854Z,15.34
2022-10-08T03:14:49.582Z,15.32
2022-10-08T03:19:51.706Z,15.37
2022-10-08T03:24:56.710Z,15.36
2022-10-08T03:29:58.405Z,15.42
2022-10-08T03:34:59.815Z,15.45
2022-10-08T03:40:02.114Z,15.48
2022-10-08T03:45:04.251Z,15.46
2022-10-08T03:50:06.203Z,15.48
2022-10-08T03:55:08.233Z,15.48
2022-10-08T04:00:10.228Z,15.55
2022-10-08T04:05:11.899Z,15.61
2022-10-08T04:10:13.429Z,15.61
2022-10-08T04:15:15.038Z,15.61
2022-10-08T04:20:16.679Z,15.61
2022-10-08T04:25:18.240Z,15.58
2022-10-08T04:30:19.660Z,15.65
2022-10-08T04:35:21.116Z,15.70
2022-10-08T04:40:22.590Z,15.73
2022-10-08T04:45:24.093Z,15.74
2022-10-08T04:50:25.608Z,15.77
2022-10-08T04:55:27.081Z,15.77
2022-10-08T05:00:28.766Z,15.76
2022-10-08T05:05:30.279Z,15.66
2022-10-08T05:10:31.722Z,15.62
2022-10-08T05:15:35.111Z,15.62
2022-10-08T05:20:37.039Z,15.62
2022-10-08T05:25:38.693Z,15.64
2022-10-08T05:30:40.120Z,15.56
2022-10-08T05:35:41.530Z,15.53
2022-10-08T05:40:42.947Z,15.48
2022-10-08T05:45:51.736Z,15.39
2022-10-08T05:50:53.552Z,15.29
2022-10-08T05:56:07.199Z,15.21
2022-10-08T06:01:21.302Z,15.15
2022-10-08T06:06:24.127Z,15.17
2022-10-08T06:11:30.031Z,15.23
2022-10-08T06:16:31.909Z,15.27
2022-10-08T06:21:34.641Z,15.29
2022-10-08T06:26:39.337Z,15.33
2022-10-08T06:31:41.249Z,15.48
2022-10-08T06:36:43.077Z,15.63
2022-10-08T06:41:44.745Z,15.78
2022-10-08T06:46:46.381Z,15.90
2022-10-08T06:51:47.855Z,16.11
2022-10-08T06:56:49.280Z,16.22
2022-10-08T07:01:50.688Z,16.34
2022-10-08T07:06:52.159Z,16.37
2022-10-08T07:11:53.644Z,16.49
2022-10-08T07:16:55.134Z,16.81
2022-10-08T07:22:01.022Z,16.88
2022-10-08T07:27:02.906Z,16.79
2022-10-08T07:32:04.391Z,16.76
2022-10-08T07:37:05.813Z,16.68
2022-10-08T07:42:07.318Z,16.77
2022-10-08T07:47:09.236Z,17.05
2022-10-08T07:52:10.684Z,17.51
2022-10-08T07:57:12.149Z,18.01
2022-10-08T08:02:13.673Z,18.48
2022-10-08T08:07:15.251Z,18.74
2022-10-08T08:12:16.831Z,18.71
2022-10-08T08:17:18.349Z,18.67
2022-10-08T08:22:19.845Z,19.06
2022-10-08T08:27:22.202Z,21.12
2022-10-08T08:32:28.220Z,22.32
2022-10-08T08:37:30.213Z,21.95
2022-10-08T08:42:56.816Z,21.32
2022-10-08T08:48:05.903Z,20.93
2022-10-08T08:53:10.169Z,20.77
2022-10-08T08:58:21.067Z,20.43
2022-10-08T09:03:28.539Z,20.19
2022-10-08T09:08:40.474Z,20.19
2022-10-08T09:13:52.578Z,20.24
2022-10-08T09:18:54.801Z,20.81
2022-10-08T09:23:56.560Z,21.14
2022-10-08T09:29:00.121Z,22.25
2022-10-08T09:34:13.120Z,23.45
2022-10-08T09:39:20.744Z,24.22
2022-10-08T09:44:23.199Z,24.77
2022-10-08T09:49:33.568Z,25.32
2022-10-08T09:54:41.574Z,25.62
2022-10-08T09:59:59.826Z,26.08
2022-10-08T10:05:04.020Z,26.78
2022-10-08T10:10:15.885Z,26.57
2022-10-08T10:15:31.359Z,26.22
2022-10-08T10:20:41.898Z,27.34
2022-10-08T10:25:48.557Z,28.17
2022-10-08T10:30:58.509Z,27.43
2022-10-08T10:36:04.710Z,27.47
2022-10-08T10:41:15.819Z,27.40
2022-10-08T10:46:47.005Z,26.33
2022-10-08T10:52:07.242Z,26.78
2022-10-08T10:57:19.760Z,26.22
2022-10-08T11:02:31.046Z,25.58
2022-10-08T11:07:53.533Z,24.86
2022-10-08T11:13:17.929Z,24.21
2022-10-08T11:18:34.624Z,23.52
2022-10-08T11:23:42.231Z,23.26
2022-10-08T11:29:00.488Z,23.00
2022-10-08T11:34:03.861Z,23.06
2022-10-08T11:39:41.695Z,22.73
2022-10-08T11:44:43.259Z,22.03
2022-10-08T11:49:53.114Z,21.73
2022-10-08T11:54:56.021Z,21.33
2022-10-08T12:00:24.123Z,21.25
2022-10-08T12:05:36.585Z,21.38
2022-10-08T12:10:39.975Z,21.55
2022-10-08T12:15:42.909Z,21.54
2022-10-08T12:20:44.700Z,21.63
2022-10-08T12:26:09.016Z,21.58
2022-10-08T12:31:33.395Z,21.66
2022-10-08T12:36:43.677Z,21.63
2022-10-08T12:42:02.044Z,21.61
2022-10-08T12:47:14.638Z,21.69
2022-10-08T12:52:20.912Z,22.09
2022-10-08T12:57:26.802Z,22.35
2022-10-08T13:02:34.898Z,22.13
2022-10-08T13:07:36.385Z,22.04
2022-10-08T13:12:37.816Z,21.71
2022-10-08T13:17:39.300Z,21.39
2022-10-08T13:22:40.812Z,21.23
2022-10-08T13:27:42.235Z,21.34
2022-10-08T13:32:43.707Z,21.03
2022-10-08T13:37:54.338Z,20.57
2022-10-08T13:42:58.817Z,20.31
2022-10-08T13:48:00.630Z,20.30
2022-10-08T13:53:02.149Z,20.44
2022-10-08T13:58:05.926Z,20.61
2022-10-08T14:03:08.179Z,20.84
2022-10-08T14:08:23.041Z,20.93
2022-10-08T14:13:25.395Z,20.75
2022-10-08T14:18:26.894Z,20.46
2022-10-08T14:23:28.319Z,20.25
2022-10-08T14:28:29.890Z,20.08
2022-10-08T14:33:31.480Z,19.88
2022-10-08T14:38:34.082Z,19.74
2022-10-08T14:43:35.818Z,19.68
2022-10-08T14:48:39.300Z,19.62
2022-10-08T14:53:41.832Z,19.61
2022-10-08T14:58:43.411Z,19.68
2022-10-08T15:03:45.924Z,19.79
2022-10-08T15:08:47.708Z,19.92
2022-10-08T15:13:49.191Z,19.83
2022-10-08T15:18:50.588Z,19.67
2022-10-08T15:23:54.959Z,19.49
2022-10-08T15:28:56.471Z,19.36
2022-10-08T15:33:59.820Z,19.15
2022-10-08T15:39:11.888Z,18.97
2022-10-08T15:44:24.498Z,18.83
2022-10-08T15:49:33.916Z,18.68
2022-10-08T15:54:39.755Z,18.52
2022-10-08T15:59:42.838Z,18.39
2022-10-08T16:04:45.868Z,18.19
2022-10-08T16:09:47.481Z,18.03
2022-10-08T16:14:49.009Z,17.89
2022-10-08T16:19:50.704Z,17.73
2022-10-08T16:24:52.254Z,17.62
2022-10-08T16:29:53.738Z,17.47
2022-10-08T16:34:55.196Z,17.29
2022-10-08T16:39:57.444Z,17.14
2022-10-08T16:44:58.950Z,17.00
2022-10-08T16:50:00.545Z,16.86
2022-10-08T16:55:02.066Z,16.66
2022-10-08T17:00:04.770Z,16.45
2022-10-08T17:05:07.481Z,16.28
2022-10-08T17:10:09.514Z,16.04
2022-10-08T17:15:11.386Z,15.89
2022-10-08T17:20:12.844Z,15.86
2022-10-08T17:25:14.279Z,15.93
2022-10-08T17:30:15.896Z,15.84
2022-10-08T17:35:17.363Z,15.80
2022-10-08T17:40:18.823Z,15.87
2022-10-08T17:45:22.136Z,15.90
2022-10-08T17:55:25.111Z,15.26
2022-10-08T18:00:27.308Z,15.14
2022-10-08T18:05:28.783Z,15.23
2022-10-08T18:10:30.239Z,15.27
2022-10-08T18:15:31.735Z,15.19
2022-10-08T18:20:33.237Z,15.08
2022-10-08T18:25:35.766Z,15.06
2022-10-08T18:30:37.244Z,15.09
2022-10-08T18:35:38.704Z,15.08
2022-10-08T18:40:40.177Z,15.01
2022-10-08T18:45:41.796Z,14.82
2022-10-08T18:50:43.263Z,14.53
2022-10-08T18:55:50.542Z,14.34
2022-10-08T19:00:52.039Z,14.18
2022-10-08T19:05:53.933Z,14.08
2022-10-08T19:10:55.451Z,13.92
2022-10-08T19:15:56.973Z,13.78
2022-10-08T19:21:06.700Z,13.66
2022-10-08T19:26:08.502Z,13.54
2022-10-08T19:31:24.206Z,13.43
2022-10-08T19:36:28.444Z,13.29
2022-10-08T19:41:31.284Z,13.18
2022-10-08T19:46:33.366Z,13.04
2022-10-08T19:51:35.444Z,12.88
2022-10-08T19:56:37.051Z,12.80
2022-10-08T20:01:39.889Z,12.78
2022-10-08T20:06:42.943Z,12.74
2022-10-08T20:11:45.776Z,12.71
2022-10-08T20:16:47.283Z,12.64
2022-10-08T20:21:50.600Z,12.51
2022-10-08T20:26:52.240Z,12.38
2022-10-08T20:31:55.350Z,12.24
2022-10-08T20:36:59.108Z,12.10
2022-10-08T20:42:00.661Z,11.94
2022-10-08T20:47:02.303Z,11.79
2022-10-08T20:52:04.885Z,11.69
2022-10-08T20:57:07.193Z,11.61
2022-10-08T21:02:10.391Z,11.55
2022-10-08T21:07:11.869Z,11.48
2022-10-08T21:12:13.300Z,11.40
2022-10-08T21:17:14.776Z,11.32
2022-10-08T21:22:16.215Z,11.26
2022-10-08T21:27:17.701Z,11.20
2022-10-08T21:32:19.406Z,11.12
2022-10-08T21:37:20.811Z,11.00
2022-10-08T21:42:22.251Z,10.89
2022-10-08T21:47:23.702Z,10.72
2022-10-08T21:52:25.218Z,10.49
2022-10-08T21:57:26.691Z,10.26
2022-10-08T22:02:28.200Z,10.22
2022-10-08T22:07:29.767Z,10.24
2022-10-08T22:12:31.245Z,10.27
2022-10-08T22:17:32.682Z,10.31
2022-10-08T22:22:34.144Z,10.36
2022-10-08T22:27:35.565Z,10.43
2022-10-08T22:32:37.016Z,10.46
2022-10-08T22:37:38.543Z,10.47
2022-10-08T22:42:40.211Z,10.41
2022-10-08T22:47:41.620Z,10.31
2022-10-08T22:52:43.761Z,10.19
2022-10-08T22:57:45.235Z,10.05
2022-10-08T23:02:46.865Z,9.92
2022-10-08T23:07:48.543Z,9.79
2022-10-08T23:12:52.120Z,9.65
2022-10-08T23:17:53.661Z,9.52
2022-10-08T23:22:55.108Z,9.41
2022-10-08T23:27:56.602Z,9.42
2022-10-08T23:32:58.057Z,9.60
2022-10-08T23:37:59.488Z,9.74
2022-10-08T23:43:00.916Z,9.91
2022-10-08T23:48:02.349Z,9.99
2022-10-08T23:53:04.296Z,9.89
2022-10-08T23:58:05.777Z,9.69
